KFSE

Fosston Municipal Airport

Fosston, Minnesota, USA
METAR KFSE 161255Z AUTO 24005KT 10SM CLR M06/M07 A3002 RMK AO2
Observed Flight Rules
Dec-16 @ 12:55 UTC (10 minutes ago) Visual Flight Rules
Wind Visibility Clouds
240° at 5 knots 10 miles
  • Clear skies
Temperatures Readings
Current -6°C / 21°F
Dewpoint -7°C / 19°F
Humidity 93%
Altimeter 30.02" Hg
Pressure 1017 hPa
Elevation 389
METAR KFSE 161255Z AUTO 24005KT 10SM CLR M06/M07 A3002 RMK AO2
Observed Flight Rules
Dec-16 @ 12:55 UTC
(10 minutes ago)
VFR
Wind Visibility
240° at 5 knots 10 miles
Clouds
  • Clear skies
Temperature Dewpoint
-6°C / 21°F -7°C / 19°F
Humidity Altimeter Pressure
93% 30.02" Hg 1017 hPa